Time;durP1;ratioP1;P1;durP2;ratioP2;P2;SDS_P1;SDS_P2;PMS_P1;PMS_P2;Temp;Humidity;BMP_temperature;BMP_pressure;BME280_temperature;BME280_humidity;BME280_pressure;Samples;Min_cycle;Max_cycle;Signal;HPM_P1;HPM_P2
2022/07/18 00:00:46;;;;;;;2.70;2.06;;;;;;;19.56;74.17;100793.33;489885;108;922711;-74
2022/07/18 00:01:49;;;;;;;2.36;1.79;;;;;;;19.55;74.12;100794.42;489992;108;923358;-74
2022/07/18 00:02:53;;;;;;;7.47;2.58;;;;;;;19.55;74.11;100788.89;489970;108;923409;-74
2022/07/18 00:03:56;;;;;;;2.39;2.08;;;;;;;19.55;74.06;100796.34;490033;108;922540;-74
2022/07/18 00:04:58;;;;;;;3.94;1.99;;;;;;;19.54;74.08;100801.05;490082;108;922974;-74
2022/07/18 00:06:02;;;;;;;2.48;1.99;;;;;;;19.54;74.12;100801.05;489948;108;922595;-75
2022/07/18 00:07:05;;;;;;;6.03;2.19;;;;;;;19.54;74.12;100800.21;488686;108;930280;-75
2022/07/18 00:08:08;;;;;;;1.92;1.77;;;;;;;19.55;74.12;100801.88;487880;108;922504;-75
2022/07/18 00:09:11;;;;;;;3.42;2.47;;;;;;;19.55;74.14;100799.95;487884;108;922829;-74
2022/07/18 00:10:15;;;;;;;3.96;2.11;;;;;;;19.54;74.14;100795.52;487782;108;922489;-74
2022/07/18 00:11:18;;;;;;;2.10;1.90;;;;;;;19.55;74.09;100799.95;487947;108;922482;-75
2022/07/18 00:12:21;;;;;;;2.18;1.62;;;;;;;19.55;74.10;100797.19;487932;108;923023;-74
2022/07/18 00:13:24;;;;;;;2.48;1.86;;;;;;;19.55;74.10;100797.19;487913;108;922560;-75
2022/07/18 00:14:27;;;;;;;3.34;2.23;;;;;;;19.56;74.07;100792.48;487644;108;922452;-75
2022/07/18 00:15:30;;;;;;;2.72;1.91;;;;;;;19.56;74.12;100803.55;486411;109;922899;-74
2022/07/18 00:16:33;;;;;;;3.80;2.23;;;;;;;19.57;74.13;100802.45;486360;109;922505;-75
2022/07/18 00:17:37;;;;;;;2.25;2.03;;;;;;;19.57;74.05;100797.73;486347;109;922441;-75
2022/07/18 00:18:40;;;;;;;3.34;2.11;;;;;;;19.56;74.08;100798.86;486342;109;922914;-75
2022/07/18 00:19:43;;;;;;;4.90;1.96;;;;;;;19.57;74.05;100800.49;486430;109;922423;-75
2022/07/18 00:20:46;;;;;;;2.83;2.07;;;;;;;19.58;74.00;100809.63;486459;109;922451;-74
2022/07/18 00:21:49;;;;;;;3.12;1.97;;;;;;;19.58;74.04;100807.70;486522;109;922533;-74
2022/07/18 00:22:52;;;;;;;2.35;2.01;;;;;;;19.58;73.92;100807.70;486451;109;923342;-74
2022/07/18 00:23:55;;;;;;;2.51;2.29;;;;;;;19.58;74.08;100807.70;486432;109;922906;-74
2022/07/18 00:24:58;;;;;;;2.12;1.77;;;;;;;19.60;74.13;100806.60;486461;109;922512;-74
2022/07/18 00:26:01;;;;;;;2.89;2.47;;;;;;;19.62;74.02;100809.95;486439;109;922574;-74
2022/07/18 00:27:06;;;;;;;2.80;2.35;;;;;;;19.63;74.00;100811.61;486465;109;922487;-75
2022/07/18 00:28:11;;;;;;;2.65;2.26;;;;;;;19.62;73.96;100815.48;486200;109;923095;-74
2022/07/18 00:29:16;;;;;;;2.48;1.99;;;;;;;19.62;73.91;100810.78;486130;109;923024;-74
2022/07/18 00:30:19;;;;;;;2.41;2.09;;;;;;;19.63;73.90;100808.84;488082;108;922762;-74
2022/07/18 00:31:22;;;;;;;4.46;1.89;;;;;;;19.63;73.91;100808.84;490000;108;930322;-75
2022/07/18 00:32:25;;;;;;;2.13;1.96;;;;;;;19.63;74.02;100809.66;490050;108;922869;-75
2022/07/18 00:33:28;;;;;;;2.21;2.02;;;;;;;19.65;74.08;100806.63;491110;107;922592;-74
2022/07/18 00:34:32;;;;;;;3.49;2.49;;;;;;;19.67;74.20;100808.03;486286;107;922801;-75
2022/07/18 00:35:35;;;;;;;2.74;2.06;;;;;;;19.68;74.04;100809.70;486050;109;922524;-75
2022/07/18 00:36:38;;;;;;;2.72;1.94;;;;;;;19.68;73.82;100808.88;486057;109;923017;-75
2022/07/18 00:37:41;;;;;;;2.79;2.51;;;;;;;19.68;73.72;100811.64;486158;109;923042;-75
2022/07/18 00:38:44;;;;;;;2.73;2.14;;;;;;;19.67;73.70;100807.20;486121;108;922775;-74
2022/07/18 00:39:47;;;;;;;2.49;2.29;;;;;;;19.65;73.60;100809.39;486174;109;922540;-75
2022/07/18 00:40:51;;;;;;;2.64;2.18;;;;;;;19.62;73.59;100802.48;486033;109;923011;-74
2022/07/18 00:41:54;;;;;;;2.73;2.41;;;;;;;19.63;73.62;100806.08;486158;109;922937;-75
2022/07/18 00:42:57;;;;;;;5.12;2.25;;;;;;;19.60;73.58;100809.37;486146;109;923010;-74
2022/07/18 00:44:00;;;;;;;2.70;2.08;;;;;;;19.60;73.56;100807.44;486137;109;922541;-74
2022/07/18 00:45:03;;;;;;;2.19;1.91;;;;;;;19.59;73.57;100805.77;486186;109;922499;-74
2022/07/18 00:46:07;;;;;;;2.83;2.24;;;;;;;19.58;73.55;100806.86;486063;109;922910;-74
2022/07/18 00:47:10;;;;;;;2.84;2.35;;;;;;;19.57;73.52;100802.45;486232;109;922584;-75
2022/07/18 00:48:14;;;;;;;2.94;2.42;;;;;;;19.56;73.54;100807.16;486180;109;923033;-75
2022/07/18 00:49:18;;;;;;;4.26;2.46;;;;;;;19.55;73.55;100802.72;486023;109;922459;-74
2022/07/18 00:50:22;;;;;;;3.25;2.29;;;;;;;19.54;73.55;100801.05;486084;109;922472;-74
2022/07/18 00:51:25;;;;;;;2.81;2.48;;;;;;;19.53;73.56;100809.61;486057;109;922541;-75
2022/07/18 00:52:28;;;;;;;2.81;2.14;;;;;;;19.53;73.59;100809.61;486120;109;922887;-75
2022/07/18 00:53:31;;;;;;;3.03;2.62;;;;;;;19.52;73.61;100814.30;486142;109;922805;-74
2022/07/18 00:54:34;;;;;;;3.59;2.34;;;;;;;19.52;73.61;100817.06;486079;109;922484;-74
2022/07/18 00:55:39;;;;;;;2.89;1.91;;;;;;;19.52;73.58;100816.23;490145;107;922518;-74
2022/07/18 00:56:43;;;;;;;2.25;1.87;;;;;;;19.51;73.59;100812.66;495046;107;922572;-75
2022/07/18 00:57:46;;;;;;;3.84;2.45;;;;;;;19.50;73.59;100813.76;495161;107;922523;-74
2022/07/18 00:58:49;;;;;;;3.98;2.54;;;;;;;19.50;73.58;100819.29;495204;107;922992;-75
2022/07/18 01:02:36;;;;;;;2.64;2.34;;;;;;;19.49;73.62;100823.15;495017;107;923025;-74
2022/07/18 01:03:39;;;;;;;2.27;2.08;;;;;;;19.48;73.71;100815.95;495052;107;922544;-75
2022/07/18 01:04:42;;;;;;;4.66;2.01;;;;;;;19.49;73.78;100822.31;495186;107;930333;-75
2022/07/18 01:05:45;;;;;;;2.29;2.11;;;;;;;19.49;73.92;100820.38;495269;107;922991;-74
2022/07/18 01:06:50;;;;;;;3.59;2.33;;;;;;;19.49;73.83;100820.38;495116;107;922515;-74
2022/07/18 01:07:53;;;;;;;2.42;2.22;;;;;;;19.50;73.69;100823.98;494711;107;922490;-75
2022/07/18 01:08:57;;;;;;;2.83;2.05;;;;;;;19.50;73.69;100823.98;494773;107;930464;-74
2022/07/18 01:10:00;;;;;;;2.46;2.04;;;;;;;19.50;73.60;100823.98;494843;107;922440;-74
2022/07/18 01:11:03;;;;;;;4.12;2.31;;;;;;;19.50;73.62;100822.05;494871;107;922464;-74
2022/07/18 01:12:08;;;;;;;4.37;2.39;;;;;;;19.50;73.68;100818.45;494872;107;922499;-74
2022/07/18 01:13:11;;;;;;;2.59;1.96;;;;;;;19.51;73.78;100820.95;494744;107;922589;-74
2022/07/18 01:14:15;;;;;;;3.58;2.59;;;;;;;19.53;73.90;100818.73;494818;107;922772;-74
2022/07/18 01:15:18;;;;;;;3.61;2.09;;;;;;;19.55;73.75;100815.71;489895;107;922638;-75
2022/07/18 01:16:23;;;;;;;3.88;2.42;;;;;;;19.55;73.57;100819.31;489713;108;922572;-74
2022/07/18 01:17:26;;;;;;;3.56;2.37;;;;;;;19.55;73.39;100822.08;489865;108;922921;-75
2022/07/18 01:18:31;;;;;;;4.42;2.36;;;;;;;19.53;73.31;100821.50;489603;108;922749;-75
2022/07/18 01:19:36;;;;;;;2.37;2.17;;;;;;;19.53;73.23;100818.73;489938;108;922834;-75
2022/07/18 01:20:39;;;;;;;2.66;2.37;;;;;;;19.53;73.18;100818.73;489731;108;922466;-74
2022/07/18 01:21:42;;;;;;;2.81;2.25;;;;;;;19.54;73.22;100816.80;489951;108;930318;-75
2022/07/18 01:22:45;;;;;;;2.58;2.29;;;;;;;19.54;73.24;100809.34;490032;108;923135;-75
2022/07/18 01:23:49;;;;;;;3.43;2.42;;;;;;;19.55;73.29;100812.95;489852;108;922501;-74
2022/07/18 01:24:52;;;;;;;3.48;3.14;;;;;;;19.56;73.22;100812.69;489879;108;930307;-74
2022/07/18 01:25:55;;;;;;;5.56;2.61;;;;;;;19.54;72.93;100809.34;489965;108;922451;-75
2022/07/18 01:26:58;;;;;;;2.60;2.27;;;;;;;19.53;72.76;100804.91;489904;108;922974;-74
2022/07/18 01:28:01;;;;;;;3.93;2.78;;;;;;;19.51;72.52;100815.42;489823;108;930297;-75
2022/07/18 01:29:04;;;;;;;3.34;2.51;;;;;;;19.51;72.31;100817.36;489830;108;922486;-74
2022/07/18 01:30:09;;;;;;;4.21;2.64;;;;;;;19.49;72.24;100812.09;497885;104;922471;-74
2022/07/18 01:31:12;;;;;;;4.87;2.61;;;;;;;19.48;72.13;100818.71;495131;107;923065;-74
2022/07/18 01:32:16;;;;;;;3.72;2.74;;;;;;;19.48;71.96;100823.41;495147;107;922502;-76
2022/07/18 01:33:19;;;;;;;3.21;2.73;;;;;;;19.45;71.79;100819.27;495064;107;930951;-74
2022/07/18 01:34:23;;;;;;;4.89;2.99;;;;;;;19.44;71.58;100828.62;487377;107;930513;-74
2022/07/18 01:35:27;;;;;;;3.98;3.15;;;;;;;19.42;71.53;100818.91;485771;109;922853;-74
2022/07/18 01:36:30;;;;;;;3.44;3.15;;;;;;;19.40;71.47;100816.44;485743;109;930559;-74
2022/07/18 01:37:33;;;;;;;4.03;3.01;;;;;;;19.39;71.31;100812.00;485823;109;922727;-75
2022/07/18 01:38:37;;;;;;;4.42;3.02;;;;;;;19.38;71.11;100812.26;485870;109;922680;-75
2022/07/18 01:39:41;;;;;;;3.24;2.93;;;;;;;19.35;70.97;100815.57;485763;109;922838;-74
2022/07/18 01:40:44;;;;;;;5.43;3.59;;;;;;;19.33;70.89;100817.77;485856;109;922561;-75
2022/07/18 01:41:56;;;;;;;4.62;3.31;;;;;;;19.30;70.72;100813.58;485870;109;922483;-74
2022/07/18 01:42:59;;;;;;;5.10;3.17;;;;;;;19.30;70.65;100809.98;485694;109;922511;-75
2022/07/18 01:44:02;;;;;;;5.84;3.18;;;;;;;19.27;70.39;100814.13;485899;109;922603;-75
2022/07/18 01:45:06;;;;;;;5.38;3.33;;;;;;;19.25;70.31;100807.19;485812;109;922539;-75
2022/07/18 01:46:10;;;;;;;3.42;2.78;;;;;;;19.22;70.17;100822.39;485798;109;922421;-74
2022/07/18 01:47:13;;;;;;;4.66;3.02;;;;;;;19.18;70.04;100816.54;485801;109;922468;-74
2022/07/18 01:48:16;;;;;;;3.75;3.00;;;;;;;19.15;69.97;100816.25;485895;109;922312;-75
2022/07/18 01:49:20;;;;;;;3.49;3.11;;;;;;;19.12;69.90;100809.34;485809;109;922498;-74
2022/07/18 01:50:23;;;;;;;3.28;2.93;;;;;;;19.10;69.87;100814.29;485795;109;922443;-74
2022/07/18 01:51:26;;;;;;;4.51;3.19;;;;;;;19.08;69.94;100810.95;485887;107;922458;-74
2022/07/18 01:52:29;;;;;;;4.62;3.01;;;;;;;19.08;69.81;100815.64;485986;109;922928;-75
2022/07/18 01:53:32;;;;;;;2.84;2.55;;;;;;;19.05;69.70;100810.66;486004;109;922834;-74
2022/07/18 01:54:37;;;;;;;5.82;3.29;;;;;;;19.02;69.66;100814.77;485942;109;922538;-74
2022/07/18 01:55:40;;;;;;;3.62;3.18;;;;;;;18.99;69.63;100811.71;485771;109;922491;-75
2022/07/18 01:56:43;;;;;;;4.39;3.02;;;;;;;18.98;69.61;100812.80;485921;109;923140;-74
2022/07/18 01:57:46;;;;;;;3.81;3.46;;;;;;;18.96;69.56;100818.62;485944;109;922644;-75
2022/07/18 01:58:49;;;;;;;5.32;3.04;;;;;;;18.94;69.52;100814.44;485895;109;922536;-75
2022/07/18 01:59:52;;;;;;;4.22;3.48;;;;;;;18.93;69.48;100816.37;485939;109;922659;-75
2022/07/18 02:00:55;;;;;;;5.67;3.08;;;;;;;18.93;69.47;100818.30;485930;109;922936;-75
2022/07/18 02:01:58;;;;;;;3.54;3.16;;;;;;;18.92;69.34;100817.45;485929;109;922869;-75
2022/07/18 02:03:01;;;;;;;3.17;2.87;;;;;;;18.89;69.29;100809.71;485936;109;922888;-75
2022/07/18 02:04:05;;;;;;;4.35;2.96;;;;;;;18.89;69.25;100817.16;485931;109;922519;-74
2022/07/18 02:05:08;;;;;;;5.26;3.37;;;;;;;18.87;69.16;100813.81;485914;109;922457;-74
2022/07/18 02:06:13;;;;;;;4.37;3.28;;;;;;;18.86;69.04;100817.67;485686;109;922919;-74
2022/07/18 02:07:16;;;;;;;3.87;2.91;;;;;;;18.81;69.02;100810.18;489581;108;922416;-74
2022/07/18 02:08:19;;;;;;;5.36;3.14;;;;;;;18.79;68.89;100815.16;490427;108;922962;-75
2022/07/18 02:09:22;;;;;;;6.29;2.54;;;;;;;18.76;68.85;100815.66;490387;108;922724;-75
2022/07/18 02:10:26;;;;;;;3.32;2.97;;;;;;;18.73;68.84;100814.28;490339;108;922500;-75
2022/07/18 02:11:29;;;;;;;3.05;2.64;;;;;;;18.71;68.97;100810.94;490424;108;930506;-74
2022/07/18 02:12:32;;;;;;;3.66;3.04;;;;;;;18.70;68.93;100814.78;490446;108;922384;-75
2022/07/18 02:13:35;;;;;;;5.00;3.03;;;;;;;18.69;68.94;100812.28;490466;108;922861;-74
2022/07/18 02:14:38;;;;;;;4.78;2.86;;;;;;;18.69;68.95;100813.12;491677;107;922569;-74
2022/07/18 02:15:41;;;;;;;4.33;3.08;;;;;;;18.68;68.87;100816.16;494900;107;922509;-75
2022/07/18 02:16:44;;;;;;;4.37;3.27;;;;;;;18.67;68.94;100806.20;494855;107;922458;-75
2022/07/18 02:17:48;;;;;;;4.11;3.37;;;;;;;18.66;68.88;100810.89;494856;107;922491;-74
2022/07/18 02:18:50;;;;;;;3.48;2.77;;;;;;;18.66;68.84;100813.66;494883;105;922538;-75
2022/07/18 02:19:53;;;;;;;4.06;2.99;;;;;;;18.65;68.75;100813.91;494900;107;922546;-74
2022/07/18 02:20:57;;;;;;;3.92;3.21;;;;;;;18.63;68.72;100816.13;494896;107;922453;-74
2022/07/18 02:22:00;;;;;;;4.77;3.29;;;;;;;18.63;68.70;100813.36;494814;107;922498;-74
2022/07/18 02:23:03;;;;;;;7.28;3.90;;;;;;;18.62;68.66;100817.20;494869;107;922465;-74
2022/07/18 02:24:06;;;;;;;3.34;2.96;;;;;;;18.61;68.68;100813.61;494877;107;922499;-75
2022/07/18 02:25:10;;;;;;;6.12;3.42;;;;;;;18.61;68.75;100823.82;494882;107;923166;-74
2022/07/18 02:26:14;;;;;;;3.16;2.74;;;;;;;18.61;68.72;100824.66;494640;107;922714;-75
2022/07/18 02:27:17;;;;;;;3.63;3.03;;;;;;;18.60;68.71;100820.22;494835;107;922487;-75
2022/07/18 02:28:21;;;;;;;5.72;3.75;;;;;;;18.60;68.68;100820.22;494810;107;922451;-74
2022/07/18 02:29:24;;;;;;;4.44;2.86;;;;;;;18.60;68.56;100820.22;494450;107;922822;-74
2022/07/18 02:30:27;;;;;;;5.61;3.04;;;;;;;18.59;68.47;100817.72;487560;108;930423;-76
2022/07/18 02:31:30;;;;;;;5.12;2.94;;;;;;;18.57;68.43;100823.52;486057;109;922509;-74
2022/07/18 02:32:36;;;;;;;4.16;3.22;;;;;;;18.56;68.42;100827.37;486055;109;922460;-74
2022/07/18 02:33:38;;;;;;;4.96;3.67;;;;;;;18.55;68.43;100827.63;485792;107;922726;-75
2022/07/18 02:34:42;;;;;;;7.33;3.76;;;;;;;18.54;68.27;100828.69;486037;109;922921;-75
2022/07/18 02:35:45;;;;;;;4.62;3.18;;;;;;;18.52;68.26;100826.20;486006;109;923028;-75
2022/07/18 02:36:50;;;;;;;4.74;3.72;;;;;;;18.50;68.28;100828.38;486022;109;930410;-74
2022/07/18 02:37:53;;;;;;;5.36;3.52;;;;;;;18.50;68.13;100824.78;485984;109;922481;-75
2022/07/18 02:38:56;;;;;;;4.46;3.33;;;;;;;18.48;68.11;100829.72;486168;109;922474;-75
2022/07/18 02:39:59;;;;;;;4.78;3.52;;;;;;;18.46;68.09;100831.93;486142;109;922660;-75
2022/07/18 02:41:02;;;;;;;6.14;3.47;;;;;;;18.43;68.11;100830.52;486169;109;922879;-75
2022/07/18 02:42:05;;;;;;;4.15;2.92;;;;;;;18.40;68.03;100827.45;486167;109;922530;-75
2022/07/18 02:43:08;;;;;;;3.66;3.08;;;;;;;18.37;68.07;100833.48;486177;109;923004;-75
2022/07/18 02:44:11;;;;;;;3.91;3.08;;;;;;;18.33;68.13;100834.01;486173;109;922466;-75
2022/07/18 02:45:14;;;;;;;3.10;2.80;;;;;;;18.31;68.20;100827.90;486115;109;923321;-75
2022/07/18 02:46:19;;;;;;;4.18;3.04;;;;;;;18.29;68.24;100827.34;485892;109;922627;-75
2022/07/18 02:47:22;;;;;;;3.70;3.24;;;;;;;18.28;68.22;100828.44;486124;109;922546;-75
2022/07/18 02:48:25;;;;;;;4.59;2.89;;;;;;;18.27;68.27;100832.28;493196;107;922854;-75
2022/07/18 02:49:28;;;;;;;4.38;3.02;;;;;;;18.26;68.23;100835.30;495226;107;922539;-75
2022/07/18 02:50:33;;;;;;;13.98;3.38;;;;;;;18.23;68.25;100830.31;495020;107;922599;-75
2022/07/18 02:51:36;;;;;;;7.24;3.87;;;;;;;18.22;68.21;100826.71;495174;107;922919;-75
2022/07/18 02:52:41;;;;;;;3.08;2.87;;;;;;;18.19;68.31;100835.49;488624;108;923033;-75
2022/07/18 02:53:44;;;;;;;4.30;2.71;;;;;;;18.17;68.32;100839.63;488908;107;923119;-75
2022/07/18 02:54:47;;;;;;;4.17;2.99;;;;;;;18.16;68.34;100832.42;495181;107;923444;-75
2022/07/18 02:55:51;;;;;;;4.53;2.35;;;;;;;18.14;68.32;100842.91;495257;107;922464;-75
2022/07/18 02:56:54;;;;;;;3.47;3.05;;;;;;;18.12;68.32;100842.32;495177;107;922864;-75
2022/07/18 02:57:57;;;;;;;4.81;2.60;;;;;;;18.10;68.30;100841.73;495315;107;922557;-75
2022/07/18 02:59:00;;;;;;;4.14;2.81;;;;;;;18.08;68.40;100843.94;495292;107;922753;-75
2022/07/18 03:00:05;;;;;;;4.21;2.67;;;;;;;18.06;68.46;100840.59;495256;107;922498;-75
2022/07/18 03:01:08;;;;;;;3.28;2.65;;;;;;;18.04;68.43;100849.12;495055;107;922506;-75
2022/07/18 03:02:11;;;;;;;3.01;2.72;;;;;;;18.03;68.56;100846.64;495315;107;923289;-75
2022/07/18 03:03:14;;;;;;;3.46;2.54;;;;;;;18.03;68.69;100849.40;495253;107;923042;-75
2022/07/18 03:04:19;;;;;;;5.47;3.06;;;;;;;18.02;68.66;100847.72;495226;107;922814;-75
2022/07/18 03:05:22;;;;;;;3.94;2.84;;;;;;;18.01;68.56;100854.33;495062;107;922438;-75
2022/07/18 03:06:25;;;;;;;5.83;2.75;;;;;;;17.98;68.71;100852.91;495187;107;930523;-75
2022/07/18 03:07:28;;;;;;;3.72;2.28;;;;;;;17.98;68.81;100852.06;486160;109;922948;-75
2022/07/18 03:08:31;;;;;;;2.91;2.36;;;;;;;17.98;68.88;100858.42;486199;109;922453;-75
2022/07/18 03:09:34;;;;;;;3.21;2.83;;;;;;;17.99;68.96;100856.50;486187;109;922556;-75
2022/07/18 03:10:37;;;;;;;3.77;2.66;;;;;;;17.97;68.79;100858.70;486193;109;922506;-74
2022/07/18 03:11:40;;;;;;;3.26;2.94;;;;;;;17.98;68.95;100860.34;486212;109;922428;-75
2022/07/18 03:12:43;;;;;;;7.28;2.75;;;;;;;17.97;69.03;100858.70;486255;109;922519;-75
2022/07/18 03:13:46;;;;;;;3.04;2.67;;;;;;;17.96;69.14;100857.86;486202;109;922768;-75
2022/07/18 03:14:50;;;;;;;5.29;3.29;;;;;;;17.97;69.31;100855.94;486206;109;922600;-75
2022/07/18 03:15:53;;;;;;;4.83;2.81;;;;;;;17.98;69.47;100871.37;486201;108;922829;-75
2022/07/18 03:16:56;;;;;;;3.31;3.01;;;;;;;18.00;69.57;100869.21;486151;108;931001;-75
2022/07/18 03:17:59;;;;;;;3.31;2.44;;;;;;;18.02;69.71;100867.87;486242;108;922504;-75
2022/07/18 03:19:02;;;;;;;3.05;2.74;;;;;;;18.06;69.80;100870.95;486224;108;923588;-75
2022/07/18 03:20:06;;;;;;;3.49;2.36;;;;;;;18.08;69.91;100866.02;486161;108;923124;-75
2022/07/18 03:21:09;;;;;;;4.49;2.67;;;;;;;18.09;69.96;100859.38;486040;109;922857;-75
2022/07/18 03:22:13;;;;;;;3.59;2.19;;;;;;;18.12;70.04;100867.16;485970;108;930467;-75
2022/07/18 03:23:16;;;;;;;3.18;2.84;;;;;;;18.14;70.04;100870.50;486069;109;930755;-75
2022/07/18 03:24:19;;;;;;;3.87;2.79;;;;;;;18.16;70.11;100873.83;486118;109;922489;-75
2022/07/18 03:25:22;;;;;;;4.32;2.29;;;;;;;18.18;70.17;100875.25;486093;108;922464;-75
2022/07/18 03:26:28;;;;;;;3.32;2.71;;;;;;;18.20;70.10;100873.05;485931;108;922824;-75
2022/07/18 03:27:32;;;;;;;2.72;2.43;;;;;;;18.21;70.15;100876.64;486102;109;922509;-75
2022/07/18 03:28:35;;;;;;;8.16;2.51;;;;;;;18.24;70.24;100876.14;486095;109;922515;-75
2022/07/18 03:29:38;;;;;;;4.82;2.81;;;;;;;18.25;70.24;100877.78;487286;108;922497;-75
2022/07/18 03:30:42;;;;;;;4.69;2.60;;;;;;;18.27;70.29;100872.85;496381;104;922449;-75
2022/07/18 03:31:45;;;;;;;2.94;2.32;;;;;;;18.28;70.25;100872.60;495211;107;922458;-75
2022/07/18 03:32:48;;;;;;;2.82;2.17;;;;;;;18.30;70.25;100872.35;495258;107;930399;-75
2022/07/18 03:33:51;;;;;;;3.29;2.32;;;;;;;18.32;70.35;100878.42;492637;107;922498;-75
2022/07/18 03:34:54;;;;;;;6.11;2.44;;;;;;;18.34;70.23;100877.09;486046;109;922607;-74
2022/07/18 03:35:57;;;;;;;2.82;2.54;;;;;;;18.37;70.24;100870.20;486321;109;923004;-75
2022/07/18 03:37:00;;;;;;;3.13;2.26;;;;;;;18.38;70.10;100880.16;486186;109;923030;-75
2022/07/18 03:38:03;;;;;;;3.91;2.50;;;;;;;18.40;69.99;100877.98;486258;109;922516;-75
2022/07/18 03:39:07;;;;;;;3.35;2.56;;;;;;;18.41;69.85;100879.66;486220;109;922461;-75
2022/07/18 03:40:11;;;;;;;3.10;2.51;;;;;;;18.42;69.83;100872.18;486099;109;922737;-76
2022/07/18 03:41:14;;;;;;;4.16;2.32;;;;;;;18.43;69.63;100880.21;486227;109;930291;-75
2022/07/18 03:42:17;;;;;;;4.31;2.42;;;;;;;18.42;69.59;100873.02;486275;109;922475;-76
2022/07/18 03:43:20;;;;;;;2.18;1.96;;;;;;;18.42;69.54;100873.02;486222;109;922418;-75
2022/07/18 03:44:23;;;;;;;3.61;2.34;;;;;;;18.43;69.43;100874.69;490429;107;922977;-74
2022/07/18 03:45:26;;;;;;;2.26;2.04;;;;;;;18.43;69.39;100882.97;495432;107;922517;-75
2022/07/18 03:46:30;;;;;;;2.67;2.37;;;;;;;18.43;69.23;100877.45;495263;107;922511;-75
2022/07/18 03:47:35;;;;;;;2.84;2.10;;;;;;;18.43;69.23;100885.73;495240;107;930303;-75
2022/07/18 03:48:37;;;;;;;3.89;2.81;;;;;;;18.43;69.26;100882.97;495253;107;922498;-75
2022/07/18 03:49:40;;;;;;;3.20;2.36;;;;;;;18.44;69.18;100883.81;495386;107;922446;-76
2022/07/18 03:50:43;;;;;;;3.20;2.19;;;;;;;18.45;69.10;100878.03;495397;105;922707;-75
2022/07/18 03:51:46;;;;;;;2.37;2.09;;;;;;;18.47;69.11;100881.35;495414;107;922437;-75
2022/07/18 03:52:50;;;;;;;3.31;2.25;;;;;;;18.49;69.18;100876.41;495424;107;922563;-75
2022/07/18 03:53:52;;;;;;;2.41;2.15;;;;;;;18.51;69.26;100877.00;495406;107;922574;-75
2022/07/18 03:54:55;;;;;;;2.42;1.81;;;;;;;18.53;68.98;100872.03;495386;107;923196;-75
2022/07/18 03:55:59;;;;;;;3.49;1.94;;;;;;;18.54;68.87;100873.73;495431;107;922582;-75
2022/07/18 03:57:01;;;;;;;2.17;1.89;;;;;;;18.56;68.74;100874.33;495361;107;922828;-75
2022/07/18 03:58:04;;;;;;;2.08;1.75;;;;;;;18.58;68.56;100872.11;495383;107;922455;-74
2022/07/18 03:59:07;;;;;;;2.92;1.84;;;;;;;18.59;68.51;100872.95;495362;107;922458;-75
2022/07/18 04:00:12;;;;;;;3.50;2.11;;;;;;;18.60;68.56;100874.63;495319;107;922462;-75
2022/07/18 04:01:15;;;;;;;1.82;1.72;;;;;;;18.62;68.66;100877.97;495310;107;922630;-75
2022/07/18 04:02:19;;;;;;;3.06;2.31;;;;;;;18.63;68.54;100874.95;495305;107;923075;-75
2022/07/18 04:03:22;;;;;;;2.88;2.06;;;;;;;18.65;68.48;100877.44;495349;107;922459;-75
2022/07/18 04:04:25;;;;;;;2.22;1.68;;;;;;;18.66;68.44;100879.94;495336;107;922499;-75
2022/07/18 04:05:28;;;;;;;4.43;2.02;;;;;;;18.69;68.17;100884.09;495349;107;922629;-75
2022/07/18 04:06:31;;;;;;;4.12;1.81;;;;;;;18.68;67.96;100882.45;495216;107;922748;-75
2022/07/18 04:07:35;;;;;;;2.27;1.50;;;;;;;18.69;67.96;100886.86;492802;107;923002;-75
2022/07/18 04:08:38;;;;;;;1.80;1.65;;;;;;;18.69;68.05;100884.94;492850;107;922389;-75
2022/07/18 04:09:41;;;;;;;2.11;1.65;;;;;;;18.72;67.90;100889.11;492931;107;922465;-75
2022/07/18 04:10:44;;;;;;;2.80;1.93;;;;;;;18.71;67.60;100885.52;492849;107;922441;-75
2022/07/18 04:11:47;;;;;;;2.20;1.56;;;;;;;18.71;67.42;100881.92;492961;107;923317;-75
2022/07/18 04:12:53;;;;;;;2.39;1.68;;;;;;;18.71;67.54;100885.52;492876;107;922755;-75
2022/07/18 04:13:56;;;;;;;2.81;1.96;;;;;;;18.72;67.65;100889.11;492620;107;922624;-75
2022/07/18 04:14:59;;;;;;;2.32;1.67;;;;;;;18.75;67.71;100881.13;494605;107;922529;-75
2022/07/18 04:16:02;;;;;;;2.74;1.77;;;;;;;18.78;67.66;100887.23;495520;107;922380;-75
2022/07/18 04:17:05;;;;;;;3.04;1.87;;;;;;;18.80;67.54;100880.34;495570;107;922588;-74
2022/07/18 04:18:08;;;;;;;3.31;2.06;;;;;;;18.80;67.48;100885.86;495530;107;922510;-74
2022/07/18 04:19:11;;;;;;;1.84;1.64;;;;;;;18.83;67.01;100879.00;495594;105;922479;-74
2022/07/18 04:20:16;;;;;;;2.09;1.91;;;;;;;18.81;66.91;100878.41;495423;107;922381;-74
2022/07/18 04:21:20;;;;;;;4.33;2.07;;;;;;;18.80;66.90;100877.58;495336;107;922532;-75
2022/07/18 04:22:24;;;;;;;1.79;1.69;;;;;;;18.79;66.83;100872.34;495478;107;922520;-74
2022/07/18 04:23:27;;;;;;;2.34;1.60;;;;;;;18.78;66.88;100884.47;495557;107;922606;-74
2022/07/18 04:24:30;;;;;;;7.48;1.85;;;;;;;18.78;66.87;100878.95;495526;107;922349;-74
2022/07/18 04:25:37;;;;;;;2.06;1.72;;;;;;;18.78;66.86;100876.19;495549;107;922785;-74
2022/07/18 04:26:41;;;;;;;2.14;1.80;;;;;;;18.78;66.71;100881.71;495334;107;922431;-75
2022/07/18 04:27:44;;;;;;;2.69;1.55;;;;;;;18.78;66.66;100874.27;495516;107;922788;-74
2022/07/18 04:28:47;;;;;;;1.74;1.59;;;;;;;18.79;66.61;100883.39;495472;107;922515;-74
2022/07/18 04:29:50;;;;;;;2.11;1.94;;;;;;;18.80;66.73;100880.34;491439;107;922561;-74
2022/07/18 04:30:53;;;;;;;1.87;1.74;;;;;;;18.83;66.76;100881.76;495439;107;922488;-75
2022/07/18 04:31:56;;;;;;;2.08;1.90;;;;;;;18.84;66.59;100884.27;495485;107;922885;-74
2022/07/18 04:33:04;;;;;;;1.89;1.70;;;;;;;18.85;66.54;100885.10;495507;107;923212;-75
2022/07/18 04:34:07;;;;;;;3.74;2.06;;;;;;;18.86;66.31;100887.58;490248;107;922481;-74
2022/07/18 04:35:11;;;;;;;2.49;1.84;;;;;;;18.86;66.21;100886.75;486304;109;923037;-75
2022/07/18 04:36:16;;;;;;;1.84;1.68;;;;;;;18.86;66.17;100887.58;485546;109;922881;-74
2022/07/18 04:37:18;;;;;;;2.48;1.82;;;;;;;18.87;66.12;100882.89;486179;109;922535;-75
2022/07/18 04:38:21;;;;;;;1.82;1.64;;;;;;;18.85;66.07;100885.10;486171;109;922841;-75
2022/07/18 04:39:24;;;;;;;1.91;1.77;;;;;;;18.86;65.95;100884.81;486133;109;922478;-75
2022/07/18 04:40:28;;;;;;;2.02;1.76;;;;;;;18.85;66.03;100891.47;488798;107;922466;-75
2022/07/18 04:41:31;;;;;;;2.40;1.79;;;;;;;18.85;66.11;100896.99;495137;107;922482;-75
2022/07/18 04:42:36;;;;;;;3.23;1.82;;;;;;;18.83;66.10;100890.88;494690;107;923115;-75
2022/07/18 04:43:39;;;;;;;3.86;1.72;;;;;;;18.82;66.21;100889.21;495117;107;923075;-74
2022/07/18 04:44:42;;;;;;;4.20;1.77;;;;;;;18.80;66.22;100888.63;495142;107;930566;-73
2022/07/18 04:45:45;;;;;;;6.69;2.21;;;;;;;18.82;66.15;100882.84;495129;107;922911;-74
2022/07/18 04:46:48;;;;;;;1.79;1.61;;;;;;;18.80;66.29;100885.86;495218;107;923078;-74
2022/07/18 04:47:53;;;;;;;2.43;1.72;;;;;;;18.81;66.38;100882.02;495252;107;923068;-74
2022/07/18 04:48:56;;;;;;;3.35;1.56;;;;;;;18.82;66.53;100886.45;495125;107;922531;-74
2022/07/18 04:49:59;;;;;;;2.36;1.72;;;;;;;18.85;66.53;100880.41;495212;107;922453;-74
2022/07/18 04:51:02;;;;;;;1.88;1.76;;;;;;;18.87;66.56;100885.66;495135;107;922964;-73
2022/07/18 04:52:05;;;;;;;1.58;1.45;;;;;;;18.89;66.60;100887.08;495286;107;922430;-74
2022/07/18 04:53:08;;;;;;;2.01;1.45;;;;;;;18.92;66.60;100882.94;495292;107;922520;-74
2022/07/18 04:54:12;;;;;;;3.23;1.64;;;;;;;18.94;66.63;100880.76;495264;107;922466;-74